Latest Weather Observations for Grafton AgRS

IDN60801

Issued at 4:35 pm EST Thursday 17 April 2014 (issued every 30 minutes, with the page automatically refreshed every 10 minutes)

About weather observations | Map of weather stations | Latest weather observations for NSW | Other Formats
Station Details ID: 058077 Name: GRAFTON RESEARCH STN Lat: -29.62 Lon: 152.96 Height: 25.0 m
Data from the previous 72 hours. | See also: Recent months for locations in New South Wales
Date/Time
EST
Temp
°C
App
Temp
°C
Dew
Point
Rel
Hum
%
Delta-T
°C
Wind Press
QNH
hPa
Press
MSL
hPa
Rain
since 9 am
mm
Dir
 
Spd
km/h
Gust
km/h
Spd
kts
Gust
kts
17/04:30pm 22.5 20.6 14.1 59 4.9 E 17 24 9 13 - - 0.0
17/04:00pm 23.1 20.5 13.8 55 5.4 ESE 20 28 11 15 - - 0.0
17/03:30pm 23.4 20.9 14.1 56 5.5 ESE 20 28 11 15 - - 0.0
17/03:00pm 25.5 24.5 12.4 44 7.5 SSE 9 13 5 7 - - 0.0
17/02:30pm 25.6 24.5 12.1 43 7.7 E 9 13 5 7 - - 0.0
17/02:00pm 26.2 25.9 13.3 45 7.6 NE 7 9 4 5 - - 0.0
17/01:30pm 25.0 24.4 12.2 44 7.3 S 7 11 4 6 - - 0.0
17/01:00pm 24.7 23.8 12.6 47 7.0 SSE 9 15 5 8 - - 0.0
17/12:30pm 25.0 25.9 15.0 53 6.0 W 4 11 2 6 - - 0.0
17/12:00pm 24.5 24.5 13.7 51 6.3 ENE 6 13 3 7 - - 0.0
17/11:30am 23.8 23.8 13.6 52 6.0 SSW 6 13 3 7 - - 0.0
17/11:00am 23.2 22.6 13.4 54 5.7 SSW 9 13 5 7 - - 0.0
17/10:30am 22.9 22.1 13.9 57 5.3 WSW 11 15 6 8 - - 0.0
17/10:00am 22.5 21.8 14.4 60 4.8 W 11 20 6 11 - - 0.0
17/09:30am 21.2 20.7 14.8 67 3.8 W 11 17 6 9 - - 0.0
17/09:00am 19.8 18.9 14.8 73 2.9 W 13 17 7 9 - - 0.0
17/08:30am 18.5 18.3 15.6 83 1.7 W 11 15 6 8 - - 0.0
17/08:00am 16.5 15.8 14.3 87 1.3 W 11 17 6 9 - - 0.0
17/07:30am 15.0 14.9 13.9 93 0.6 W 7 11 4 6 - - 0.0
17/07:00am 14.1 14.2 13.8 98 0.2 W 6 11 3 6 - - 0.0
17/06:30am 13.4 11.9 13.1 98 0.2 W 13 17 7 9 - - 0.0
17/06:00am 13.1 11.8 12.6 97 0.3 W 11 15 6 8 - - 0.0
17/05:30am 13.3 12.1 12.8 97 0.3 W 11 15 6 8 - - 0.0
17/05:00am 13.3 12.4 12.7 96 0.3 W 9 13 5 7 - - 0.0
17/04:30am 13.6 13.4 13.0 96 0.3 NW 6 11 3 6 - - 0.0
17/04:00am 13.8 13.6 13.0 95 0.4 W 6 7 3 4 - - 0.0
17/03:30am 14.1 13.4 13.1 94 0.6 WNW 9 13 5 7 - - 0.0
17/03:00am 14.4 13.5 13.8 96 0.3 WNW 11 15 6 8 - - 0.0
17/02:30am 13.9 13.5 13.1 95 0.4 W 7 11 4 6 - - 0.0
17/02:00am 14.4 14.2 13.6 95 0.4 WSW 7 9 4 5 - - 0.0
17/01:30am 14.6 14.4 13.6 94 0.6 W 7 11 4 6 - - 0.0
17/01:00am 14.5 14.4 13.2 92 0.7 W 6 7 3 4 - - 0.0
17/12:30am 15.4 15.2 13.6 89 1.0 WNW 7 11 4 6 - - 0.0
17/12:00am 15.7 15.1 13.5 87 1.2 W 9 13 5 7 - - 0.0
 
Date/Time
EST
Temp
°C
App
Temp
°C
Dew
Point
Rel
Hum
%
Delta-T
°C
Wind Press
QNH
hPa
Press
MSL
hPa
Rain
since 9 am
mm
Dir
 
Spd
km/h
Gust
km/h
Spd
kts
Gust
kts
16/11:30pm 16.1 15.3 14.1 88 1.1 WNW 11 15 6 8 - - 0.0
16/11:00pm 15.7 15.1 13.4 86 1.3 W 9 9 5 5 - - 0.0
16/10:30pm 17.3 17.4 13.8 80 2.0 SW 6 7 3 4 - - 0.0
16/10:00pm 17.2 17.1 13.3 78 2.2 W 6 9 3 5 - - 0.0
16/09:30pm 17.3 16.7 13.4 78 2.2 WSW 9 11 5 6 - - 0.0
16/09:00pm 17.9 17.7 13.6 76 2.4 WSW 7 11 4 6 - - 0.0
16/08:30pm 17.2 18.4 13.9 81 1.9 CALM 0 4 0 2 - - 0.0
16/08:00pm 18.5 18.7 14.2 76 2.5 S 6 9 3 5 - - 0.0
16/07:30pm 18.3 19.9 14.8 80 2.0 CALM 0 0 0 0 - - 0.0
16/07:00pm 18.8 19.2 14.7 77 2.4 ESE 6 9 3 5 - - 0.0
16/06:30pm 19.3 19.6 15.0 76 2.5 E 7 9 4 5 - - 0.0
16/06:00pm 19.7 19.7 15.1 75 2.7 E 9 13 5 7 - - 0.0
16/05:30pm 20.5 20.3 14.8 70 3.3 E 9 13 5 7 - - 0.0
16/05:00pm 21.3 20.8 14.9 67 3.8 ESE 11 15 6 8 - - 0.0
16/04:30pm 22.3 20.3 13.9 59 4.9 SE 17 24 9 13 - - 0.0
16/04:00pm 23.7 21.6 13.6 53 5.9 SE 17 22 9 12 - - 0.0
16/03:30pm 24.3 21.7 13.2 50 6.4 SE 19 24 10 13 - - 0.0
16/03:00pm 25.3 24.3 13.5 48 6.9 SSE 11 17 6 9 - - 0.0
16/02:30pm 25.1 23.0 13.6 49 6.7 S 17 24 9 13 - - 0.0
16/02:00pm 23.6 23.0 13.5 53 5.9 S 9 15 5 8 - - 0.0
16/01:30pm 25.3 25.1 14.7 51 6.3 S 9 17 5 9 - - 0.0
16/01:00pm 24.3 22.4 12.9 49 6.6 SSW 15 20 8 11 - - 0.0
16/12:30pm 24.4 23.5 14.8 55 5.7 SSW 13 20 7 11 - - 0.0
16/12:00pm 23.8 21.4 13.9 54 5.8 SSW 19 30 10 16 - - 0.0
16/11:30am 23.1 20.8 14.1 57 5.3 SSW 19 26 10 14 - - 0.0
16/11:00am 22.7 20.6 13.7 56 5.2 SSW 17 26 9 14 - - 0.0
16/10:30am 22.3 21.3 14.7 62 4.5 SSW 13 22 7 12 - - 0.0
16/10:00am 21.7 20.9 13.9 61 4.5 SW 11 17 6 9 - - 0.0
16/09:30am 21.3 21.6 14.9 67 3.8 W 7 11 4 6 - - 0.0
16/09:00am 19.2 19.3 14.5 74 2.7 SW 7 13 4 7 - - 0.0
16/08:30am 18.0 17.4 14.7 81 1.9 WSW 11 15 6 8 - - 0.0
16/08:00am 16.6 16.2 14.2 86 1.4 W 9 13 5 7 - - 0.0
16/07:30am 15.0 14.4 13.4 90 0.9 W 9 13 5 7 - - 0.0
16/07:00am 13.6 12.4 12.7 94 0.5 WNW 11 17 6 9 - - 0.0
16/06:30am 13.0 12.4 12.2 95 0.4 WNW 7 9 4 5 - - 0.0
16/06:00am 13.1 12.5 12.2 94 0.5 W 7 11 4 6 - - 0.0
16/05:30am 13.3 12.3 12.2 93 0.6 WNW 9 11 5 6 - - 0.0
16/05:00am 12.6 11.5 12.0 96 0.3 W 9 13 5 7 - - 0.0
16/04:30am 12.8 12.3 11.9 94 0.5 WSW 6 7 3 4 - - 0.0
16/04:00am 13.0 12.3 11.9 93 0.6 W 7 9 4 5 - - 0.0
16/03:30am 13.6 14.3 12.3 92 0.7 CALM 0 6 0 3 - - 0.0
16/03:00am 14.0 12.0 12.7 92 0.7 WNW 15 19 8 10 - - 0.0
16/02:30am 14.4 13.2 12.8 90 0.9 WNW 11 15 6 8 - - 0.0
16/02:00am 14.3 13.1 12.9 91 0.8 WNW 11 15 6 8 - - 0.0
16/01:30am 14.5 13.3 12.7 89 1.0 WNW 11 13 6 7 - - 0.0
16/01:00am 14.5 13.6 12.5 88 1.1 WNW 9 11 5 6 - - 0.0
16/12:30am 14.9 14.4 12.6 86 1.3 W 7 9 4 5 - - 0.0
16/12:00am 15.6 15.1 12.7 83 1.6 W 7 9 4 5 - - 0.0
 
Date/Time
EST
Temp
°C
App
Temp
°C
Dew
Point
Rel
Hum
%
Delta-T
°C
Wind Press
QNH
hPa
Press
MSL
hPa
Rain
since 9 am
mm
Dir
 
Spd
km/h
Gust
km/h
Spd
kts
Gust
kts
15/11:30pm 15.8 14.6 12.9 83 1.6 W 11 13 6 7 - - 0.0
15/11:00pm 15.7 14.4 12.6 82 1.7 WSW 11 15 6 8 - - 0.0
15/10:30pm 15.5 14.6 12.6 83 1.6 W 9 13 5 7 - - 0.0
15/10:00pm 16.0 14.9 13.1 83 1.6 W 11 15 6 8 - - 0.0
15/09:30pm 16.9 15.5 12.2 74 2.6 WSW 11 11 6 6 - - 0.0
15/09:00pm 17.0 15.2 12.1 73 2.7 WSW 13 15 7 8 - - 0.0
15/08:30pm 17.5 16.4 12.0 70 3.0 SW 9 11 5 6 - - 0.0
15/08:00pm 17.6 16.7 12.5 72 2.8 WSW 9 11 5 6 - - 0.0
15/07:30pm 18.1 17.0 12.1 68 3.3 SW 9 11 5 6 - - 0.0
15/07:00pm 18.0 17.8 12.9 72 2.9 WSW 6 9 3 5 - - 0.0
15/06:30pm 19.0 18.7 13.2 69 3.3 SE 7 7 4 4 - - 0.0
15/06:00pm 18.9 18.1 12.9 68 3.4 SE 9 11 5 6 - - 0.0
15/05:30pm 19.3 18.4 12.6 65 3.8 SE 9 11 5 6 - - 0.0
15/05:00pm 20.3 17.9 12.8 62 4.2 SE 17 20 9 11 - - 0.0
15/04:30pm 21.7 19.6 14.6 64 4.2 SE 19 26 10 14 - - 0.0
15/04:00pm 22.1 20.1 15.5 66 3.9 SE 20 28 11 15 - - 0.0
15/03:30pm 21.5 19.3 14.9 66 3.9 SE 20 30 11 16 - - 0.0
15/03:00pm 23.1 21.2 15.2 61 4.7 SE 19 30 10 16 - - 0.0
15/02:30pm 23.3 20.2 14.6 58 5.2 SE 24 32 13 17 - - 0.0
15/02:00pm 22.4 19.0 13.7 58 5.1 SE 24 30 13 16 - - 0.0
15/01:30pm 23.4 21.7 15.7 62 4.6 SSE 19 28 10 15 - - 0.0
15/01:00pm 22.9 19.9 14.7 60 4.9 SSE 24 32 13 17 - - 0.0
15/12:54pm 23.0 19.2 14.6 59 5.0 SSE 28 41 15 22 - - 0.0
15/12:30pm 21.9 20.8 15.3 66 3.9 SSE 15 22 8 12 - - 0.0
15/12:00pm 21.1 17.5 14.3 65 4.0 S 26 39 14 21 - - 0.0
15/11:30am 22.1 19.8 14.7 63 4.4 S 20 32 11 17 - - 0.0
15/11:00am 21.4 19.8 16.1 72 3.2 SE 19 26 10 14 - - 0.0
15/10:30am 21.1 18.4 15.6 71 3.3 SSE 24 33 13 18 - - 0.0
15/10:00am 21.0 19.0 14.9 68 3.6 SE 19 24 10 13 - - 0.0
15/09:30am 20.8 18.1 15.6 72 3.1 SSE 24 30 13 16 - - 0.0
15/09:00am 20.2 18.0 15.0 72 3.1 S 20 35 11 19 - - 0.4
15/08:30am 19.4 19.6 15.7 79 2.2 SW 9 13 5 7 - - 0.4
15/08:00am 17.9 17.9 15.2 84 1.6 SW 9 13 5 7 - - 0.4
15/07:30am 17.4 17.8 15.4 88 1.2 SW 7 11 4 6 - - 0.4
15/07:00am 16.6 16.6 15.1 91 0.9 WSW 9 11 5 6 - - 0.4
15/06:30am 15.9 15.7 14.6 92 0.7 WSW 9 13 5 7 - - 0.4
15/06:00am 16.1 16.4 14.5 90 0.9 W 6 7 3 4 - - 0.4
15/05:30am 16.6 17.1 15.1 91 0.9 WSW 6 9 3 5 - - 0.4
15/05:00am 16.1 16.3 14.6 91 0.9 WSW 7 9 4 5 - - 0.4
15/04:30am 16.8 18.7 15.7 93 0.6 CALM 0 0 0 0 - - 0.4
15/04:00am 16.8 18.6 15.5 92 0.8 CALM 0 0 0 0 - - 0.4
15/03:30am 16.9 16.3 15.6 92 0.8 S 13 17 7 9 - - 0.2
15/03:00am 17.2 17.8 15.7 91 0.9 WSW 7 9 4 5 - - 0.2
15/02:30am 17.1 17.4 16.0 93 0.6 WSW 9 13 5 7 - - 0.2
15/02:00am 17.3 17.1 15.8 91 0.9 SSW 11 15 6 8 - - 0.2
15/01:30am 17.5 17.5 16.2 92 0.8 S 11 15 6 8 - - 0.0
15/01:00am 17.8 19.2 16.3 91 0.9 SW 4 7 2 4 - - 0.0
15/12:30am 17.7 18.1 16.2 91 0.9 SW 9 11 5 6 - - 0.0
15/12:00am 17.6 18.0 16.3 92 0.8 SW 9 11 5 6 - - 0.0
 
Date/Time
EST
Temp
°C
App
Temp
°C
Dew
Point
Rel
Hum
%
Delta-T
°C
Wind Press
QNH
hPa
Press
MSL
hPa
Rain
since 9 am
mm
Dir
 
Spd
km/h
Gust
km/h
Spd
kts
Gust
kts
14/11:30pm 17.6 18.5 16.1 91 0.9 SW 6 9 3 5 - - 0.0
14/11:00pm 17.4 17.6 15.7 90 1.0 SW 9 11 5 6 - - 0.0
14/10:30pm 18.1 18.0 16.1 88 1.2 SSW 11 13 6 7 - - 0.0
14/10:00pm 18.4 18.3 16.0 86 1.4 S 11 15 6 8 - - 0.0
14/09:30pm 18.7 17.1 16.1 85 1.5 S 19 26 10 14 - - 0.0
14/09:00pm 18.5 16.9 15.9 85 1.5 S 19 26 10 14 - - 0.0
14/08:30pm 18.4 16.2 16.0 86 1.4 S 22 33 12 18 - - 0.0
14/08:13pm 18.9 15.6 16.1 84 1.7 S 28 37 15 20 - - 0.0
14/08:00pm 18.8 18.7 16.9 89 1.1 S 13 17 7 9 - - 0.0
14/07:30pm 18.4 18.2 16.7 90 1.0 S 13 19 7 10 - - 0.0
14/07:00pm 19.6 19.7 16.4 82 1.9 S 11 15 6 8 - - 0.0
14/06:30pm 19.5 19.8 16.0 80 2.1 S 9 13 5 7 - - 0.0
14/06:00pm 19.4 19.2 15.7 79 2.2 S 11 17 6 9 - - 0.0
14/05:30pm 19.9 18.9 15.7 77 2.5 SSE 15 20 8 11 - - 0.0
14/05:00pm 20.7 18.3 15.5 72 3.1 SSE 22 30 12 16 - - 0.0

Other Formats:

Comma delimited format used in spreadsheet applications
http://www.bom.gov.au/fwo/IDN60801/IDN60801.95571.axf

JavaScript Object Notation format (JSON) in row-major order
http://www.bom.gov.au/fwo/IDN60801/IDN60801.95571.json